createdAt,value
2023-05-19T00:01:19.243Z,6.13
2023-05-19T00:03:54.672Z,7.07
2023-05-19T00:06:27.322Z,7.30
2023-05-19T00:08:58.919Z,4.85
2023-05-19T00:11:27.088Z,5.63
2023-05-19T00:13:55.224Z,6.10
2023-05-19T00:16:22.929Z,5.47
2023-05-19T00:18:49.936Z,9.50
2023-05-19T00:21:16.943Z,8.85
2023-05-19T00:23:43.739Z,5.18
2023-05-19T00:26:11.170Z,5.78
2023-05-19T00:28:38.020Z,9.07
2023-05-19T00:31:07.900Z,6.45
2023-05-19T00:33:34.943Z,7.10
2023-05-19T00:36:05.952Z,7.25
2023-05-19T00:38:34.085Z,5.70
2023-05-19T00:41:02.152Z,4.07
2023-05-19T00:43:30.347Z,6.75
2023-05-19T00:45:57.863Z,6.75
2023-05-19T00:48:26.154Z,6.53
2023-05-19T00:51:02.435Z,7.40
2023-05-19T00:53:29.581Z,7.57
2023-05-19T00:55:56.627Z,6.00
2023-05-19T00:58:25.745Z,9.18
2023-05-19T01:00:53.156Z,6.78
2023-05-19T01:03:20.776Z,7.40
2023-05-19T01:05:53.844Z,8.57
2023-05-19T01:08:20.755Z,9.25
2023-05-19T01:10:48.623Z,16.92
2023-05-19T01:13:15.750Z,15.57
2023-05-19T01:15:58.008Z,16.65
2023-05-19T01:18:38.920Z,20.42
2023-05-19T01:21:36.567Z,11.02
2023-05-19T01:24:23.060Z,13.13
2023-05-19T01:27:02.069Z,11.80
2023-05-19T01:29:39.480Z,14.60
2023-05-19T01:32:08.022Z,12.63
2023-05-19T01:34:40.195Z,13.90
2023-05-19T01:37:08.101Z,17.33
2023-05-19T01:39:36.330Z,22.02
2023-05-19T01:42:04.449Z,18.65
2023-05-19T01:44:33.624Z,27.60
2023-05-19T01:47:01.024Z,19.70
2023-05-19T01:49:27.769Z,23.05
2023-05-19T01:51:54.581Z,15.93
2023-05-19T01:54:21.623Z,22.98
2023-05-19T01:57:00.210Z,22.30
2023-05-19T01:59:39.125Z,18.77
2023-05-19T02:02:26.497Z,20.02
2023-05-19T02:05:00.964Z,23.05
2023-05-19T02:07:57.114Z,20.00
2023-05-19T02:10:31.124Z,21.60
2023-05-19T02:13:04.773Z,25.52
2023-05-19T02:15:39.039Z,30.55
2023-05-19T02:18:09.557Z,33.38
2023-05-19T02:20:36.401Z,18.08
2023-05-19T02:23:03.201Z,26.50
2023-05-19T02:25:29.983Z,24.73
2023-05-19T02:27:58.485Z,29.00
2023-05-19T02:30:25.424Z,25.50
2023-05-19T02:32:54.358Z,27.20
2023-05-19T02:35:21.666Z,20.50
2023-05-19T02:37:51.768Z,22.98
2023-05-19T02:40:18.545Z,31.50
2023-05-19T02:42:45.567Z,39.42
2023-05-19T02:45:12.291Z,20.08
2023-05-19T02:47:39.216Z,30.10
2023-05-19T02:50:06.584Z,28.30
2023-05-19T02:52:33.461Z,28.88
2023-05-19T02:55:00.472Z,27.50
2023-05-19T02:57:27.322Z,22.40
2023-05-19T02:59:54.085Z,27.73
2023-05-19T03:02:20.924Z,22.33
2023-05-19T03:04:47.991Z,24.58
2023-05-19T03:07:15.675Z,21.65
2023-05-19T03:09:42.610Z,22.55
2023-05-19T03:12:09.684Z,19.80
2023-05-19T03:14:39.261Z,35.60
2023-05-19T03:17:08.128Z,26.90
2023-05-19T03:19:35.043Z,31.35
2023-05-19T03:22:01.845Z,30.05
2023-05-19T03:24:28.575Z,36.10
2023-05-19T03:26:55.815Z,30.17
2023-05-19T03:29:22.711Z,24.00
2023-05-19T03:31:49.418Z,29.42
2023-05-19T03:34:16.264Z,26.55
2023-05-19T03:36:43.241Z,28.83
2023-05-19T03:39:10.076Z,32.60
2023-05-19T03:41:37.317Z,17.65
2023-05-19T03:44:04.304Z,29.60
2023-05-19T03:46:31.086Z,28.00
2023-05-19T03:48:58.348Z,18.15
2023-05-19T03:51:25.135Z,33.15
2023-05-19T03:53:52.732Z,22.50
2023-05-19T03:56:20.925Z,33.08
2023-05-19T03:58:48.344Z,22.42
2023-05-19T04:01:15.385Z,22.63
2023-05-19T04:03:42.220Z,33.13
2023-05-19T04:06:09.154Z,27.17
2023-05-19T04:08:36.296Z,26.70
2023-05-19T04:11:03.162Z,34.30
2023-05-19T04:13:29.963Z,22.65
2023-05-19T04:15:56.763Z,26.58
2023-05-19T04:18:23.459Z,26.65
2023-05-19T04:20:50.158Z,17.38
2023-05-19T04:23:16.900Z,23.50
2023-05-19T04:25:43.725Z,28.85
2023-05-19T04:28:10.530Z,32.55
2023-05-19T04:30:38.722Z,23.75
2023-05-19T04:33:05.572Z,25.85
2023-05-19T04:35:32.344Z,27.33
2023-05-19T04:37:59.125Z,23.35
2023-05-19T04:40:25.937Z,28.58
2023-05-19T04:42:55.353Z,25.80
2023-05-19T04:45:23.402Z,26.73
2023-05-19T04:47:50.158Z,26.42
2023-05-19T04:50:17.167Z,31.08
2023-05-19T04:52:47.439Z,20.38
2023-05-19T04:55:14.253Z,24.58
2023-05-19T04:57:41.075Z,23.38
2023-05-19T05:00:12.314Z,28.40
2023-05-19T05:02:39.141Z,23.70
2023-05-19T05:05:06.512Z,29.88
2023-05-19T05:07:33.258Z,24.02
2023-05-19T05:09:59.986Z,20.33
2023-05-19T05:12:27.120Z,21.65
2023-05-19T05:14:54.271Z,31.90
2023-05-19T05:17:21.645Z,24.20
2023-05-19T05:19:48.880Z,23.95
2023-05-19T05:22:16.168Z,26.70
2023-05-19T05:24:43.201Z,30.65
2023-05-19T05:27:10.429Z,25.30
2023-05-19T05:29:37.412Z,27.45
2023-05-19T05:32:04.473Z,31.98
2023-05-19T05:34:32.050Z,27.73
2023-05-19T05:36:58.764Z,31.83
2023-05-19T05:39:25.725Z,23.50
2023-05-19T05:41:52.478Z,36.97
2023-05-19T05:44:19.259Z,30.50
2023-05-19T05:46:46.462Z,26.85
2023-05-19T05:49:13.634Z,21.42
2023-05-19T05:51:42.934Z,20.15
2023-05-19T05:54:12.793Z,22.25
2023-05-19T05:56:41.268Z,25.33
2023-05-19T05:59:08.036Z,25.83
2023-05-19T06:01:35.972Z,25.77
2023-05-19T06:04:02.775Z,24.10
2023-05-19T06:06:29.627Z,30.63
2023-05-19T06:08:56.526Z,26.73
2023-05-19T06:11:23.477Z,39.85
2023-05-19T06:13:50.222Z,28.23
2023-05-19T06:16:17.055Z,23.98
2023-05-19T06:18:43.931Z,29.83
2023-05-19T06:21:10.704Z,29.98
2023-05-19T06:23:37.425Z,31.42
2023-05-19T06:26:04.204Z,29.75
2023-05-19T06:28:31.793Z,26.13
2023-05-19T06:30:58.710Z,27.60
2023-05-19T06:33:28.213Z,27.58
2023-05-19T06:35:56.042Z,31.92
2023-05-19T06:38:22.778Z,19.75
2023-05-19T06:40:49.552Z,23.08
2023-05-19T06:43:16.369Z,26.58
2023-05-19T06:45:43.094Z,36.13
2023-05-19T06:48:09.867Z,23.17
2023-05-19T06:50:36.671Z,24.40
2023-05-19T06:53:03.440Z,30.17
2023-05-19T06:55:30.202Z,32.20
2023-05-19T06:57:57.038Z,26.63
2023-05-19T07:00:31.167Z,27.42
2023-05-19T07:02:58.066Z,36.78
2023-05-19T07:05:24.853Z,22.65
2023-05-19T07:07:51.686Z,28.70
2023-05-19T07:10:18.534Z,27.90
2023-05-19T07:12:53.027Z,24.38
2023-05-19T07:15:19.832Z,32.78
2023-05-19T07:17:46.614Z,24.67
2023-05-19T07:20:13.648Z,34.63
2023-05-19T07:22:40.419Z,32.00
2023-05-19T07:25:08.025Z,24.35
2023-05-19T07:27:35.096Z,29.10
2023-05-19T07:30:02.375Z,32.28
2023-05-19T07:32:29.133Z,34.25
2023-05-19T07:34:55.890Z,32.95
2023-05-19T07:37:22.695Z,30.20
2023-05-19T07:39:49.455Z,24.17
2023-05-19T07:42:19.698Z,30.25
2023-05-19T07:44:46.495Z,33.20
2023-05-19T07:47:13.210Z,27.92
2023-05-19T07:49:39.946Z,27.08
2023-05-19T07:52:07.318Z,23.52
2023-05-19T07:54:35.805Z,26.52
2023-05-19T07:57:02.722Z,23.15
2023-05-19T07:59:29.564Z,28.05
2023-05-19T08:01:56.479Z,25.23
2023-05-19T08:04:23.338Z,26.20
2023-05-19T08:06:50.168Z,28.13
2023-05-19T08:09:16.961Z,26.98
2023-05-19T08:11:44.881Z,29.92
2023-05-19T08:14:11.785Z,25.08
2023-05-19T08:16:38.755Z,25.30
2023-05-19T08:19:07.328Z,32.72
2023-05-19T08:21:34.764Z,25.13
2023-05-19T08:24:01.993Z,21.05
2023-05-19T08:26:29.127Z,26.00
2023-05-19T08:28:56.044Z,30.55
2023-05-19T08:31:22.924Z,22.55
2023-05-19T08:33:49.816Z,31.40
2023-05-19T08:36:17.147Z,23.73
2023-05-19T08:38:45.230Z,24.15
2023-05-19T08:41:12.257Z,25.13
2023-05-19T08:43:39.981Z,25.08
2023-05-19T08:46:08.381Z,26.13
2023-05-19T08:48:36.891Z,28.77
2023-05-19T08:51:14.678Z,20.30
2023-05-19T08:53:48.362Z,25.10
2023-05-19T08:56:20.037Z,26.45
2023-05-19T08:58:49.206Z,25.17
2023-05-19T09:01:19.658Z,23.52
2023-05-19T09:03:50.049Z,24.13
2023-05-19T09:06:17.361Z,27.27
2023-05-19T09:08:44.484Z,19.63
2023-05-19T09:11:11.691Z,21.23
2023-05-19T09:13:39.206Z,18.60
2023-05-19T09:16:06.679Z,23.67
2023-05-19T09:18:34.034Z,23.52
2023-05-19T09:21:03.150Z,21.70
2023-05-19T09:23:35.149Z,19.85
2023-05-19T09:26:08.890Z,23.15
2023-05-19T09:28:38.026Z,19.73
2023-05-19T09:31:06.302Z,23.98
2023-05-19T09:33:35.157Z,20.83
2023-05-19T09:36:03.425Z,19.73
2023-05-19T09:38:30.197Z,24.88
2023-05-19T09:40:58.423Z,21.23
2023-05-19T09:43:33.705Z,17.98
2023-05-19T09:46:04.370Z,23.08
2023-05-19T09:48:31.293Z,14.93
2023-05-19T09:50:58.923Z,28.02
2023-05-19T09:53:26.325Z,19.02
2023-05-19T09:55:59.375Z,13.90
2023-05-19T09:58:27.176Z,22.48
2023-05-19T10:00:59.555Z,21.92
2023-05-19T10:03:27.202Z,20.33
2023-05-19T10:05:55.050Z,16.27
2023-05-19T10:08:27.621Z,22.75
2023-05-19T10:10:54.985Z,25.55
2023-05-19T10:13:22.574Z,19.67
2023-05-19T10:15:58.140Z,20.75
2023-05-19T10:18:28.014Z,21.25
2023-05-19T10:20:56.007Z,21.90
2023-05-19T10:23:23.620Z,18.65
2023-05-19T10:25:54.914Z,21.48
2023-05-19T10:28:25.661Z,16.83
2023-05-19T10:30:56.719Z,16.23
2023-05-19T10:33:38.886Z,13.67
2023-05-19T10:36:24.593Z,16.75
2023-05-19T10:39:06.341Z,26.33
2023-05-19T10:41:52.238Z,18.25
2023-05-19T10:44:34.351Z,24.25
2023-05-19T10:49:28.179Z,19.45
2023-05-19T10:51:57.944Z,17.42
2023-05-19T10:54:46.824Z,15.60
2023-05-19T10:57:17.709Z,15.55
2023-05-19T10:59:44.879Z,22.58
2023-05-19T11:02:42.050Z,19.80
2023-05-19T11:05:09.886Z,18.67
2023-05-19T11:07:36.912Z,22.17
2023-05-19T11:10:07.801Z,21.33
2023-05-19T11:12:45.234Z,17.63
2023-05-19T11:15:14.159Z,15.43
2023-05-19T11:17:45.290Z,15.75
2023-05-19T11:20:26.431Z,23.60
2023-05-19T11:23:19.269Z,14.93
2023-05-19T11:25:54.508Z,17.70
2023-05-19T11:28:26.848Z,22.08
2023-05-19T11:30:59.183Z,21.40
2023-05-19T11:33:30.196Z,17.13
2023-05-19T11:36:00.366Z,10.83
2023-05-19T11:38:28.669Z,14.57
2023-05-19T11:40:56.639Z,21.60
2023-05-19T11:43:26.488Z,17.08
2023-05-19T11:45:56.486Z,16.45
2023-05-19T11:48:24.708Z,17.33
2023-05-19T11:50:52.572Z,17.42
2023-05-19T11:53:22.257Z,14.35
2023-05-19T11:55:49.852Z,27.90
2023-05-19T11:58:17.568Z,14.88
2023-05-19T12:00:48.286Z,24.13
2023-05-19T12:03:15.537Z,21.60
2023-05-19T12:05:48.585Z,14.00
2023-05-19T12:08:17.899Z,20.95
2023-05-19T12:10:50.193Z,15.52
2023-05-19T12:13:21.144Z,18.77
2023-05-19T12:15:47.892Z,23.95
2023-05-19T12:18:14.779Z,19.48
2023-05-19T12:20:41.922Z,18.27
2023-05-19T12:23:09.152Z,13.07
2023-05-19T12:25:36.594Z,13.05
2023-05-19T12:28:04.953Z,12.40
2023-05-19T12:30:33.451Z,20.77
2023-05-19T12:33:02.010Z,12.02
2023-05-19T12:35:30.864Z,17.02
2023-05-19T12:38:03.103Z,12.25
2023-05-19T12:40:30.429Z,20.08
2023-05-19T12:42:59.352Z,13.23
2023-05-19T12:45:28.636Z,14.30
2023-05-19T12:47:56.178Z,11.32
2023-05-19T12:50:31.395Z,22.83
2023-05-19T12:53:00.009Z,19.55
2023-05-19T12:55:27.062Z,13.35
2023-05-19T12:57:58.203Z,20.73
2023-05-19T13:00:28.510Z,15.60
2023-05-19T13:03:05.130Z,11.77
2023-05-19T13:05:40.452Z,17.80
2023-05-19T13:08:09.375Z,19.92
2023-05-19T13:10:38.128Z,14.55
2023-05-19T13:13:06.083Z,11.20
2023-05-19T13:15:35.529Z,11.45
2023-05-19T13:18:04.736Z,14.07
2023-05-19T13:20:33.388Z,16.17
2023-05-19T13:23:01.020Z,18.65
2023-05-19T13:25:28.195Z,10.57
2023-05-19T13:27:55.363Z,14.32
2023-05-19T13:30:22.828Z,16.15
2023-05-19T13:32:49.590Z,16.77
2023-05-19T13:35:16.442Z,12.32
2023-05-19T13:37:43.604Z,17.52
2023-05-19T13:40:11.088Z,14.60
2023-05-19T13:42:38.155Z,13.93
2023-05-19T13:45:05.419Z,19.52
2023-05-19T13:47:32.331Z,14.38
2023-05-19T13:49:59.422Z,12.40
2023-05-19T13:52:28.326Z,14.15
2023-05-19T13:54:57.527Z,16.20
2023-05-19T13:57:25.634Z,10.15
2023-05-19T14:00:01.860Z,12.57
2023-05-19T14:02:30.467Z,11.65
2023-05-19T14:04:57.728Z,15.90
2023-05-19T14:07:25.843Z,11.70
2023-05-19T14:09:56.400Z,15.43
2023-05-19T14:12:27.652Z,11.40
2023-05-19T14:15:07.082Z,80.10
2023-05-19T14:17:34.854Z,25.60
2023-05-19T14:20:01.953Z,14.50
2023-05-19T14:22:28.752Z,9.85
2023-05-19T14:24:55.590Z,9.75
2023-05-19T14:27:22.585Z,14.98
2023-05-19T14:29:49.450Z,14.35
2023-05-19T14:32:16.766Z,8.65
2023-05-19T14:34:43.593Z,15.65
2023-05-19T14:37:11.510Z,13.85
2023-05-19T14:39:38.390Z,12.23
2023-05-19T14:42:05.492Z,9.98
2023-05-19T14:44:35.325Z,14.18
2023-05-19T14:47:02.483Z,11.77
2023-05-19T14:49:29.286Z,9.63
2023-05-19T14:51:56.429Z,13.35
2023-05-19T14:54:23.213Z,10.75
2023-05-19T14:56:50.063Z,11.88
2023-05-19T14:59:16.854Z,11.65
2023-05-19T15:01:46.687Z,9.90
2023-05-19T15:04:13.580Z,14.82
2023-05-19T15:06:40.721Z,17.73
2023-05-19T15:09:07.519Z,12.02
2023-05-19T15:11:34.406Z,19.30
2023-05-19T15:14:01.187Z,15.32
2023-05-19T15:16:31.378Z,13.57
2023-05-19T15:18:58.254Z,16.33
2023-05-19T15:21:25.062Z,13.02
2023-05-19T15:23:51.889Z,12.43
2023-05-19T15:26:18.715Z,10.13
2023-05-19T15:28:45.436Z,13.60
2023-05-19T15:31:12.289Z,12.20
2023-05-19T15:33:39.107Z,11.13
2023-05-19T15:36:06.098Z,13.60
2023-05-19T15:38:36.452Z,13.23
2023-05-19T15:41:06.931Z,15.13
2023-05-19T15:43:34.017Z,10.38
2023-05-19T15:46:01.061Z,9.77
2023-05-19T15:48:29.167Z,7.65
2023-05-19T15:50:58.288Z,10.30
2023-05-19T15:53:25.918Z,16.27
2023-05-19T15:55:54.961Z,12.38
2023-05-19T15:58:21.786Z,10.98
2023-05-19T16:00:48.802Z,15.75
2023-05-19T16:03:15.788Z,12.02
2023-05-19T16:05:43.036Z,10.38
2023-05-19T16:08:09.806Z,16.95
2023-05-19T16:10:36.605Z,15.20
2023-05-19T16:13:03.436Z,15.00
2023-05-19T16:15:30.292Z,13.57
2023-05-19T16:17:57.414Z,13.85
2023-05-19T16:20:27.973Z,9.38
2023-05-19T16:22:55.577Z,12.35
2023-05-19T16:25:22.895Z,20.30
2023-05-19T16:27:50.327Z,12.50
2023-05-19T16:30:17.357Z,10.48
2023-05-19T16:32:44.469Z,11.50
2023-05-19T16:35:11.327Z,11.07
2023-05-19T16:37:38.127Z,12.68
2023-05-19T16:40:05.836Z,12.43
2023-05-19T16:42:32.706Z,10.77
2023-05-19T16:44:59.477Z,16.13
2023-05-19T16:47:26.358Z,10.73
2023-05-19T16:49:53.187Z,17.20
2023-05-19T16:52:20.290Z,11.32
2023-05-19T16:54:47.112Z,16.00
2023-05-19T16:57:17.023Z,11.27
2023-05-19T16:59:43.917Z,15.95
2023-05-19T17:02:10.793Z,11.68
2023-05-19T17:04:37.652Z,23.02
2023-05-19T17:07:04.707Z,14.18
2023-05-19T17:09:31.579Z,13.50
2023-05-19T17:11:58.529Z,20.50
2023-05-19T17:14:25.368Z,12.57
2023-05-19T17:16:52.718Z,15.95
2023-05-19T17:19:19.849Z,12.07
2023-05-19T17:21:46.673Z,12.27
2023-05-19T17:24:13.474Z,11.18
2023-05-19T17:26:40.271Z,15.20
2023-05-19T17:29:07.016Z,16.55
2023-05-19T17:31:33.926Z,20.05
2023-05-19T17:34:00.901Z,14.00
2023-05-19T17:36:27.645Z,17.17
2023-05-19T17:38:54.653Z,19.52
2023-05-19T17:41:21.997Z,12.52
2023-05-19T17:43:48.803Z,19.08
2023-05-19T17:46:15.986Z,14.55
2023-05-19T17:48:43.393Z,16.67
2023-05-19T17:51:10.300Z,18.02
2023-05-19T17:53:37.340Z,17.42
2023-05-19T17:56:07.048Z,14.57
2023-05-19T17:58:34.371Z,14.45
2023-05-19T18:01:01.526Z,19.58
2023-05-19T18:03:28.737Z,22.80
2023-05-19T18:05:55.940Z,15.45
2023-05-19T18:08:23.086Z,13.98
2023-05-19T18:10:51.840Z,21.73
2023-05-19T18:13:22.861Z,17.05
2023-05-19T18:15:49.700Z,17.70
2023-05-19T18:18:16.478Z,18.08
2023-05-19T18:20:45.637Z,22.40
2023-05-19T18:23:12.544Z,18.23
2023-05-19T18:25:40.031Z,19.63
2023-05-19T18:28:06.898Z,13.88
2023-05-19T18:30:33.896Z,19.17
2023-05-19T18:33:03.755Z,13.52
2023-05-19T18:35:31.106Z,20.15
2023-05-19T18:37:57.910Z,12.65
2023-05-19T18:40:24.802Z,17.02
2023-05-19T18:42:51.652Z,21.23
2023-05-19T18:45:18.569Z,22.00
2023-05-19T18:47:45.899Z,17.73
2023-05-19T18:50:13.257Z,14.15
2023-05-19T18:52:40.376Z,13.23
2023-05-19T18:55:07.723Z,11.80
2023-05-19T18:57:34.507Z,14.93
2023-05-19T19:00:02.594Z,17.13
2023-05-19T19:02:29.624Z,20.88
2023-05-19T19:04:56.508Z,15.82
2023-05-19T19:07:25.159Z,13.95
2023-05-19T19:09:51.941Z,19.83
2023-05-19T19:12:20.288Z,13.35
2023-05-19T19:14:47.377Z,15.65
2023-05-19T19:17:14.329Z,16.23
2023-05-19T19:19:41.353Z,18.15
2023-05-19T19:22:09.893Z,20.38
2023-05-19T19:24:36.643Z,12.77
2023-05-19T19:27:04.050Z,14.13
2023-05-19T19:29:30.943Z,12.93
2023-05-19T19:31:57.778Z,12.90
2023-05-19T19:34:24.576Z,21.42
2023-05-19T19:36:51.815Z,14.50
2023-05-19T19:39:18.628Z,16.38
2023-05-19T19:41:45.664Z,17.35
2023-05-19T19:44:13.693Z,17.10
2023-05-19T19:46:40.630Z,19.60
2023-05-19T19:49:07.734Z,18.55
2023-05-19T19:51:34.569Z,15.50
2023-05-19T19:54:01.357Z,43.63
2023-05-19T19:56:28.233Z,22.85
2023-05-19T19:58:56.918Z,20.55
2023-05-19T20:01:27.653Z,20.83
2023-05-19T20:03:55.463Z,22.20
2023-05-19T20:06:22.423Z,28.38
2023-05-19T20:08:49.799Z,23.27
2023-05-19T20:11:17.483Z,37.30
2023-05-19T20:13:44.292Z,27.27
2023-05-19T20:16:11.202Z,26.40
2023-05-19T20:18:38.770Z,23.75
2023-05-19T20:21:05.652Z,19.70
2023-05-19T20:23:32.475Z,16.77
2023-05-19T20:26:11.097Z,15.13
2023-05-19T20:28:39.168Z,18.90
2023-05-19T20:31:06.473Z,26.65
2023-05-19T20:33:33.326Z,14.00
2023-05-19T20:36:00.268Z,13.05
2023-05-19T20:38:27.242Z,10.55
2023-05-19T20:40:56.688Z,12.88
2023-05-19T20:43:23.471Z,15.27
2023-05-19T20:45:50.537Z,13.30
2023-05-19T20:48:17.405Z,19.58
2023-05-19T20:50:44.319Z,15.80
2023-05-19T20:53:11.056Z,20.98
2023-05-19T20:55:39.135Z,15.50
2023-05-19T20:58:06.127Z,14.82
2023-05-19T21:00:33.190Z,11.35
2023-05-19T21:03:02.391Z,15.98
2023-05-19T21:05:29.456Z,11.02
2023-05-19T21:07:56.448Z,12.73
2023-05-19T21:10:23.352Z,15.18
2023-05-19T21:12:50.171Z,16.98
2023-05-19T21:15:16.998Z,13.60
2023-05-19T21:17:43.797Z,14.32
2023-05-19T21:20:11.093Z,17.17
2023-05-19T21:22:37.884Z,16.02
2023-05-19T21:25:05.069Z,16.17
2023-05-19T21:27:33.001Z,24.15
2023-05-19T21:30:00.346Z,12.88
2023-05-19T21:32:27.946Z,13.05
2023-05-19T21:34:54.787Z,17.90
2023-05-19T21:37:21.965Z,19.38
2023-05-19T21:39:49.077Z,17.52
2023-05-19T21:42:15.856Z,16.25
2023-05-19T21:44:42.641Z,14.52
2023-05-19T21:47:09.501Z,14.63
2023-05-19T21:49:36.300Z,15.63
2023-05-19T21:52:03.068Z,19.02
2023-05-19T21:54:29.808Z,21.05
2023-05-19T21:56:56.593Z,19.20
2023-05-19T21:59:24.881Z,22.63
2023-05-19T22:01:52.614Z,17.77
2023-05-19T22:04:21.269Z,20.33
2023-05-19T22:06:48.059Z,22.55
2023-05-19T22:09:14.947Z,19.77
2023-05-19T22:11:41.876Z,23.30
2023-05-19T22:14:08.840Z,15.60
2023-05-19T22:16:35.759Z,17.83
2023-05-19T22:19:02.636Z,15.48
2023-05-19T22:21:29.534Z,17.00
2023-05-19T22:23:56.311Z,21.42
2023-05-19T22:26:23.147Z,28.75
2023-05-19T22:28:50.484Z,16.00
2023-05-19T22:31:17.808Z,20.77
2023-05-19T22:33:44.822Z,13.88
2023-05-19T22:36:11.707Z,17.52
2023-05-19T22:38:38.525Z,13.25
2023-05-19T22:41:05.660Z,21.08
2023-05-19T22:43:32.522Z,22.92
2023-05-19T22:45:59.471Z,16.88
2023-05-19T22:48:26.394Z,18.30
2023-05-19T22:50:53.209Z,23.52
2023-05-19T22:53:19.948Z,20.38
2023-05-19T22:55:46.812Z,16.33
2023-05-19T22:58:13.669Z,25.15
2023-05-19T23:00:40.601Z,19.67
2023-05-19T23:03:07.444Z,13.88
2023-05-19T23:05:34.732Z,16.10
2023-05-19T23:08:01.701Z,20.95
2023-05-19T23:10:28.453Z,20.35
2023-05-19T23:12:55.352Z,22.83
2023-05-19T23:15:22.166Z,24.00
2023-05-19T23:17:48.960Z,27.35
2023-05-19T23:20:15.960Z,18.35
2023-05-19T23:22:42.890Z,23.13
2023-05-19T23:25:10.402Z,20.70
2023-05-19T23:27:37.530Z,18.85
2023-05-19T23:30:05.062Z,23.67
2023-05-19T23:32:32.382Z,18.10
2023-05-19T23:35:12.718Z,15.07
2023-05-19T23:37:39.786Z,13.25
2023-05-19T23:40:07.579Z,25.60
2023-05-19T23:42:34.488Z,18.60
2023-05-19T23:45:01.392Z,20.35
2023-05-19T23:47:28.255Z,17.60
2023-05-19T23:49:55.119Z,18.15
2023-05-19T23:52:21.923Z,24.42
2023-05-19T23:54:48.921Z,17.00
2023-05-19T23:57:15.840Z,16.63
2023-05-19T23:59:43.199Z,20.88
